Shipshewana, IN (46565)

3:54 PM EST on February 10, 2016 (GMT -0500)
Kirsch Municipal | | Change Station
CLOSE
Current Station
Airport
Location: Sturgis,
Elevation: 925 ft
Nearby Weather Stations

Elev 925 ft 41.82 °N, 85.44 °W | Updated 20 minutes ago

Overcast
Overcast
18 °F
Feels Like 4 °F
N
14
Wind Variable Wind from WNW
Gusts 20 mph

Today
High -- | Low -- °F
--% Chance of Precip.
Yesterday
High -- | Low -- °F
Precip. -- in
Pressure 29.89 in
Visibility 1.0 miles
Clouds Mostly Cloudy 800 ft
Overcast 1400 ft
Windchill 4 °F
Dew Point 13 °F
Humidity 82%
Rainfall 0.00 in
Snow Depth Not available.
7:44 AM 6:08 PM
Waxing Crescent, 7% visible
METAR KIRS 102034Z AUTO 30012G17KT 1SM -SN BKN008 OVC014 M08/M11 A2989 RMK AO2 T10801106
Pressure 29.89 in
Visibility 1.0 miles
Clouds Mostly Cloudy 800 ft
Overcast 1400 ft
Windchill 4 °F
Dew Point 13 °F
Humidity 82%
Rainfall 0.00 in
Snow Depth Not available.
7:44 AM 6:08 PM
Waxing Crescent, 7% visible
METAR KIRS 102034Z AUTO 30012G17KT 1SM -SN BKN008 OVC014 M08/M11 A2989 RMK AO2 T10801106

10-Day Weather Forecast

Almanac

Astronomy

Feb. 10, 2016 Rise Set
Actual Time
Civil Twilight
Nautical Twilight
Astronomical Twilight
Moon
Length of Visible Light
Length of Day
Tomorrow will be .
, % of the Moon is Illuminated

Today's Extremes

State Highs State Lows

Community

WunderPhotos

Upload Photos

1,891,945 photos uploaded!

WunderBlog® & News

Nearby

Air Quality

  Air Quality AQ Index Pollutant
Not available.

Snow Depth

Station Depth Elevation

Earthquake Activity

City Distance Mag. Time & Date
Minimum magnitude displayed is 2.5.

Coastal Water Temperatures

Place Temperature

Stations

Nearby Weather Stations

Station Location Temp. Windchill Dew Point Humidity Wind Precip. Elev Updated Type
                   

Watches & Warnings

There are currently no watches in effect.